Time;durP1;ratioP1;P1;durP2;ratioP2;P2;SDS_P1;SDS_P2;PMS_P1;PMS_P2;Temp;Humidity;BMP_temperature;BMP_pressure;BME280_temperature;BME280_humidity;BME280_pressure;Samples;Min_cycle;Max_cycle;Signal;HPM_P1;HPM_P2
2023/02/04 00:09:24;;;;;;;1999.90;999.90;;;8.50;99.90;;;;;;6713542;88;20209;-77
2023/02/04 00:19:24;;;;;;;1999.90;999.90;;;8.50;99.90;;;;;;6717138;88;20520;-76
2023/02/04 00:29:25;;;;;;;1999.90;999.90;;;8.40;99.90;;;;;;6739544;88;20206;-76
2023/02/04 00:39:25;;;;;;;1999.90;999.90;;;8.30;99.90;;;;;;6731064;88;20279;-76
2023/02/04 00:49:26;;;;;;;1999.90;999.90;;;8.30;99.90;;;;;;6711512;88;20198;-76
2023/02/04 00:59:27;;;;;;;1999.90;999.90;;;8.30;99.90;;;;;;6721078;88;20234;-76
2023/02/04 01:09:27;;;;;;;1999.90;999.90;;;8.20;99.90;;;;;;6714020;88;20523;-75
2023/02/04 01:19:28;;;;;;;1999.90;999.90;;;8.30;99.90;;;;;;6708204;88;20284;-76
2023/02/04 01:29:28;;;;;;;1999.90;999.90;;;8.30;99.90;;;;;;6711884;88;20673;-75
2023/02/04 01:39:29;;;;;;;1999.90;999.90;;;8.20;99.90;;;;;;6711281;88;20183;-75
2023/02/04 01:49:30;;;;;;;1999.90;999.90;;;8.10;99.90;;;;;;6714422;88;20202;-76
2023/02/04 01:59:30;;;;;;;1999.90;999.90;;;8.20;99.90;;;;;;6714172;88;20261;-76
2023/02/04 02:09:32;;;;;;;1999.90;999.90;;;8.10;99.90;;;;;;6713229;88;20795;-76
2023/02/04 02:19:37;;;;;;;1999.90;999.90;;;8.10;99.90;;;;;;6711693;88;20223;-75
2023/02/04 02:29:40;;;;;;;1999.90;999.90;;;8.00;99.90;;;;;;6707744;88;20189;-76
2023/02/04 02:39:43;;;;;;;1999.90;999.90;;;7.90;99.90;;;;;;6714488;88;20198;-76
2023/02/04 02:49:46;;;;;;;1999.90;999.90;;;7.90;99.90;;;;;;6707022;88;20197;-76
2023/02/04 02:59:47;;;;;;;1999.90;999.90;;;7.80;99.90;;;;;;6707335;88;20219;-76
2023/02/04 03:09:49;;;;;;;1999.90;999.90;;;7.70;99.90;;;;;;6709844;88;20189;-76
2023/02/04 03:19:50;;;;;;;1999.90;999.90;;;7.60;99.90;;;;;;6711639;88;20182;-76
2023/02/04 03:29:51;;;;;;;1999.90;999.90;;;7.60;99.90;;;;;;6717637;88;20640;-76
2023/02/04 03:39:51;;;;;;;1999.90;999.90;;;7.50;99.90;;;;;;6715801;88;20208;-80
2023/02/04 03:49:52;;;;;;;1999.90;999.90;;;7.40;99.90;;;;;;6712949;88;20194;-76
2023/02/04 03:59:52;;;;;;;1999.90;999.90;;;7.40;99.90;;;;;;6711317;88;20600;-76
2023/02/04 04:09:52;;;;;;;1999.90;999.90;;;7.30;99.90;;;;;;6710371;88;20313;-76
2023/02/04 04:19:53;;;;;;;1999.90;999.90;;;7.30;99.90;;;;;;6711225;88;20365;-76
2023/02/04 04:29:53;;;;;;;1999.90;999.90;;;7.30;99.90;;;;;;6709199;88;20288;-76
2023/02/04 04:39:54;;;;;;;1999.90;999.90;;;7.20;99.90;;;;;;6710636;88;20194;-76
2023/02/04 04:49:54;;;;;;;1999.90;999.90;;;7.10;99.90;;;;;;6724842;88;20241;-75
2023/02/04 04:59:55;;;;;;;1999.90;999.90;;;7.10;99.90;;;;;;6743054;88;20223;-75
2023/02/04 05:09:55;;;;;;;1999.90;999.90;;;7.10;99.90;;;;;;6720215;88;20214;-76
2023/02/04 05:19:56;;;;;;;1999.90;999.90;;;7.10;99.90;;;;;;6748501;78;20196;-77
2023/02/04 05:29:57;;;;;;;1999.90;999.90;;;7.00;99.90;;;;;;6757217;87;20201;-77
2023/02/04 05:39:57;;;;;;;1999.90;999.90;;;7.00;99.90;;;;;;6750553;88;20222;-77
2023/02/04 05:49:58;;;;;;;1999.90;999.90;;;7.00;99.90;;;;;;6749659;87;20356;-77
2023/02/04 05:59:58;;;;;;;1999.90;999.90;;;7.00;99.90;;;;;;6749774;88;20221;-77
2023/02/04 06:09:59;;;;;;;1999.90;999.90;;;6.90;99.90;;;;;;6748651;88;20185;-76
2023/02/04 06:19:59;;;;;;;1999.90;999.90;;;7.00;99.90;;;;;;6751599;88;20184;-77
2023/02/04 06:30:00;;;;;;;1999.90;999.90;;;7.00;99.90;;;;;;6751258;87;20181;-76
2023/02/04 06:40:01;;;;;;;1999.90;999.90;;;7.00;99.90;;;;;;6748974;88;20625;-76
2023/02/04 06:50:01;;;;;;;1999.90;999.90;;;7.00;99.90;;;;;;6751220;88;20200;-76
2023/02/04 07:00:02;;;;;;;1999.90;999.90;;;6.90;99.90;;;;;;6748242;88;20241;-76
2023/02/04 07:10:03;;;;;;;1999.90;999.90;;;6.90;99.90;;;;;;6749634;88;20570;-76
2023/02/04 07:20:04;;;;;;;1999.90;999.90;;;6.90;99.90;;;;;;6747403;87;20220;-76
2023/02/04 07:30:05;;;;;;;1999.90;999.90;;;6.90;99.90;;;;;;6749487;88;20222;-76
2023/02/04 07:40:06;;;;;;;1999.90;999.90;;;6.90;99.90;;;;;;6754879;88;20338;-76
2023/02/04 07:50:07;;;;;;;1999.90;999.90;;;7.00;99.90;;;;;;6746630;88;20283;-76
2023/02/04 08:00:09;;;;;;;1999.90;999.90;;;7.00;99.90;;;;;;6746073;88;20189;-76
2023/02/04 08:10:11;;;;;;;1999.90;999.90;;;7.10;99.90;;;;;;6750544;88;20609;-77
2023/02/04 08:20:12;;;;;;;1999.90;999.90;;;7.10;99.90;;;;;;6752965;88;20241;-76
2023/02/04 08:30:12;;;;;;;1999.90;999.90;;;7.30;99.90;;;;;;6750421;87;20215;-76
2023/02/04 08:40:13;;;;;;;1999.90;999.90;;;7.10;99.90;;;;;;6747472;88;20757;-77
2023/02/04 08:50:14;;;;;;;1999.90;999.90;;;7.30;99.90;;;;;;6749530;88;20299;-76
2023/02/04 09:00:15;;;;;;;1999.90;999.90;;;7.50;99.90;;;;;;6750247;88;20200;-77
2023/02/04 09:10:15;;;;;;;1999.90;999.90;;;7.60;99.90;;;;;;6750179;88;20185;-77
2023/02/04 09:20:16;;;;;;;1999.90;999.90;;;7.90;99.90;;;;;;6752492;88;20196;-77
2023/02/04 09:30:17;;;;;;;1999.90;999.90;;;8.10;99.90;;;;;;6749741;87;20623;-77
2023/02/04 09:40:19;;;;;;;1999.90;999.90;;;8.30;99.90;;;;;;6759641;87;20441;-78
2023/02/04 09:50:23;;;;;;;1999.90;999.90;;;8.40;99.90;;;;;;6751321;88;20343;-77
2023/02/04 10:00:26;;;;;;;1999.90;999.90;;;8.50;99.90;;;;;;6749457;88;20181;-77
2023/02/04 10:10:27;;;;;;;1999.90;999.90;;;8.70;99.90;;;;;;6749792;88;20218;-77
2023/02/04 10:20:27;;;;;;;1999.90;999.90;;;9.00;99.90;;;;;;6750527;88;20188;-77
2023/02/04 10:30:36;;;;;;;1999.90;999.90;;;9.30;99.90;;;;;;6750174;87;20184;-78
2023/02/04 10:40:37;;;;;;;1999.90;999.90;;;9.30;99.90;;;;;;6749190;88;20218;-77
2023/02/04 10:50:37;;;;;;;1999.90;999.90;;;9.50;99.90;;;;;;6749146;87;20326;-78
2023/02/04 11:00:39;;;;;;;1999.90;999.90;;;9.30;99.90;;;;;;6746924;88;20192;-76
2023/02/04 11:10:40;;;;;;;1999.90;999.90;;;9.50;99.90;;;;;;6747046;88;20231;-76
2023/02/04 11:20:41;;;;;;;1999.90;999.90;;;9.50;99.90;;;;;;6760753;78;20314;-78
2023/02/04 11:30:41;;;;;;;1999.90;999.90;;;9.50;99.90;;;;;;6745238;88;20202;-78
2023/02/04 11:40:42;;;;;;;1999.90;999.90;;;9.40;99.90;;;;;;6743991;88;20802;-78
2023/02/04 11:50:55;;;;;;;1999.90;999.90;;;9.40;99.90;;;;;;6736990;88;20185;-79
2023/02/04 12:00:56;;;;;;;1999.90;999.90;;;9.60;99.90;;;;;;6748152;88;21030;-77
2023/02/04 12:11:01;;;;;;;1999.90;999.90;;;9.70;99.90;;;;;;6742715;88;20201;-77
2023/02/04 12:21:03;;;;;;;1999.90;999.90;;;9.90;99.90;;;;;;6746719;88;20206;-77
2023/02/04 12:31:03;;;;;;;1999.90;999.90;;;10.10;99.90;;;;;;6743011;88;20239;-78
2023/02/04 12:41:04;;;;;;;1999.90;999.90;;;10.10;99.90;;;;;;6737085;88;20301;-78
2023/02/04 12:51:04;;;;;;;1999.90;999.90;;;10.30;99.90;;;;;;6742940;88;20239;-78
2023/02/04 13:01:05;;;;;;;1999.90;999.90;;;10.20;99.90;;;;;;6736876;88;20359;-77
2023/02/04 13:11:06;;;;;;;1999.90;999.90;;;10.40;99.90;;;;;;6743432;88;20205;-80
2023/02/04 13:21:06;;;;;;;1999.90;999.90;;;10.40;99.90;;;;;;6745472;88;20772;-80
2023/02/04 13:31:07;;;;;;;1999.90;999.90;;;10.40;99.90;;;;;;6742335;88;20284;-81
2023/02/04 13:41:07;;;;;;;1999.90;999.90;;;10.60;99.90;;;;;;6740287;88;20636;-79
2023/02/04 13:51:08;;;;;;;1999.90;999.90;;;10.80;99.90;;;;;;6746526;88;20226;-80
2023/02/04 14:01:12;;;;;;;1999.90;999.90;;;10.80;99.90;;;;;;6735891;88;20204;-76
2023/02/04 14:11:13;;;;;;;1999.90;999.90;;;10.80;99.90;;;;;;6742461;88;20693;-78
2023/02/04 14:21:14;;;;;;;1999.90;999.90;;;10.90;99.90;;;;;;6739476;88;20225;-79
2023/02/04 14:31:14;;;;;;;1999.90;999.90;;;12.70;99.90;;;;;;6738468;88;20235;-78
2023/02/04 14:41:18;;;;;;;1999.90;999.90;;;14.50;99.90;;;;;;6743249;88;20282;-78
2023/02/04 14:51:19;;;;;;;1999.90;999.90;;;13.40;99.90;;;;;;6735865;88;20251;-79
2023/02/04 15:01:19;;;;;;;1999.90;999.90;;;12.80;99.90;;;;;;6735176;88;20402;-78
2023/02/04 15:11:20;;;;;;;1999.90;999.90;;;12.40;99.90;;;;;;6745233;88;20315;-77
2023/02/04 15:21:20;;;;;;;1999.90;999.90;;;11.70;99.90;;;;;;6739903;88;20420;-78
2023/02/04 15:31:22;;;;;;;1999.90;999.90;;;11.30;99.90;;;;;;6742419;88;20238;-77
2023/02/04 15:41:25;;;;;;;1999.90;999.90;;;11.10;99.90;;;;;;6744546;88;20205;-79
2023/02/04 15:51:25;;;;;;;1999.90;999.90;;;10.70;99.90;;;;;;6746202;88;20185;-77
2023/02/04 16:01:26;;;;;;;1999.90;999.90;;;10.40;99.90;;;;;;6740884;88;20670;-78
2023/02/04 16:11:26;;;;;;;1999.90;999.90;;;10.00;99.90;;;;;;6745045;88;20185;-79
2023/02/04 16:21:27;;;;;;;1999.90;999.90;;;9.70;99.90;;;;;;6745885;88;20188;-79
2023/02/04 16:31:28;;;;;;;1999.90;999.90;;;9.40;99.90;;;;;;6742229;88;20604;-79
2023/02/04 16:41:28;;;;;;;1999.90;999.90;;;9.20;99.90;;;;;;6742599;88;20196;-79
2023/02/04 16:51:29;;;;;;;1999.90;999.90;;;9.10;99.90;;;;;;6743558;88;20209;-78
2023/02/04 17:01:30;;;;;;;1999.90;999.90;;;9.00;99.90;;;;;;6744748;88;20210;-79
2023/02/04 17:11:31;;;;;;;1999.90;999.90;;;9.00;99.90;;;;;;6740937;88;21001;-79
2023/02/04 17:21:32;;;;;;;1999.90;999.90;;;8.80;99.90;;;;;;6728740;88;20193;-77
2023/02/04 17:31:33;;;;;;;1999.90;999.90;;;8.90;99.90;;;;;;6733268;88;20244;-75
2023/02/04 17:41:33;;;;;;;1999.90;999.90;;;9.10;99.90;;;;;;6715887;88;20205;-75
2023/02/04 17:51:34;;;;;;;1999.90;999.90;;;8.80;99.90;;;;;;6736724;88;20177;-74
2023/02/04 18:01:34;;;;;;;1999.90;999.90;;;8.70;99.90;;;;;;6728016;88;20877;-76
2023/02/04 18:11:38;;;;;;;1999.90;999.90;;;8.70;99.90;;;;;;6734134;88;20660;-77
2023/02/04 18:21:38;;;;;;;1999.90;999.90;;;8.70;99.90;;;;;;6734934;88;21098;-77
2023/02/04 18:31:51;;;;;;;1999.90;999.90;;;8.90;99.90;;;;;;6733243;88;20224;-76
2023/02/04 18:41:53;;;;;;;1999.90;999.90;;;8.60;99.90;;;;;;6738860;88;20307;-77
2023/02/04 18:51:54;;;;;;;1999.90;999.90;;;8.50;99.90;;;;;;6736264;88;20974;-76
2023/02/04 19:01:55;;;;;;;1999.90;999.90;;;8.50;99.90;;;;;;6735742;88;20212;-75
2023/02/04 19:11:57;;;;;;;1999.90;999.90;;;8.40;99.90;;;;;;6734940;88;20663;-75
2023/02/04 19:21:58;;;;;;;1999.90;999.90;;;8.40;99.90;;;;;;6730128;88;20247;-76
2023/02/04 19:32:23;;;;;;;1999.90;999.90;;;8.40;99.90;;;;;;6732872;88;20181;-75
2023/02/04 19:42:23;;;;;;;1999.90;999.90;;;8.30;99.90;;;;;;6731337;88;20699;-75
2023/02/04 19:52:31;;;;;;;1999.90;999.90;;;8.50;99.90;;;;;;6737616;88;20254;-76
2023/02/04 20:02:34;;;;;;;1999.90;999.90;;;8.40;99.90;;;;;;6727128;88;20165;-75
2023/02/04 20:12:35;;;;;;;1999.90;999.90;;;8.30;99.90;;;;;;6733970;88;20241;-75
2023/02/04 20:22:42;;;;;;;1999.90;999.90;;;8.50;99.90;;;;;;6736165;88;20693;-75
2023/02/04 20:32:51;;;;;;;1999.90;999.90;;;8.40;99.90;;;;;;6736194;88;20338;-75
2023/02/04 20:43:19;;;;;;;1999.90;999.90;;;8.20;99.90;;;;;;6737668;88;20202;-76
2023/02/04 20:53:47;;;;;;;1999.90;999.90;;;8.20;99.90;;;;;;6735921;88;20188;-75
2023/02/04 21:03:50;;;;;;;1999.90;999.90;;;8.10;99.90;;;;;;6736241;88;20210;-74
2023/02/04 21:13:52;;;;;;;1999.90;999.90;;;8.00;99.90;;;;;;6737617;88;20193;-75
2023/02/04 21:23:52;;;;;;;1999.90;999.90;;;7.90;99.90;;;;;;6734005;88;20256;-75
2023/02/04 21:33:53;;;;;;;1999.90;999.90;;;7.90;99.90;;;;;;6729735;88;20656;-74
2023/02/04 21:43:54;;;;;;;1999.90;999.90;;;7.90;99.90;;;;;;6735515;88;20239;-74
2023/02/04 21:53:54;;;;;;;1999.90;999.90;;;7.90;99.90;;;;;;6737329;88;20238;-74
2023/02/04 22:03:55;;;;;;;1999.90;999.90;;;7.90;99.90;;;;;;6730517;88;20214;-75
2023/02/04 22:24:14;;;;;;;1999.90;999.90;;;8.00;99.90;;;;;;6729063;88;20700;-75
2023/02/04 22:34:15;;;;;;;1999.90;999.90;;;8.00;99.90;;;;;;6730772;88;20199;-75
2023/02/04 22:44:15;;;;;;;1999.90;999.90;;;7.90;99.90;;;;;;6733972;88;20253;-76
2023/02/04 22:54:16;;;;;;;1999.90;999.90;;;7.90;99.90;;;;;;6724550;88;20749;-75
2023/02/04 23:04:16;;;;;;;1999.90;999.90;;;7.80;99.90;;;;;;6736989;88;20212;-76
2023/02/04 23:14:17;;;;;;;1999.90;999.90;;;7.80;99.90;;;;;;6732944;77;20197;-75
2023/02/04 23:24:17;;;;;;;1999.90;999.90;;;7.50;99.90;;;;;;6724073;88;20186;-76
2023/02/04 23:34:18;;;;;;;1999.90;999.90;;;7.40;99.90;;;;;;6717512;88;20213;-75
2023/02/04 23:44:18;;;;;;;1999.90;999.90;;;7.50;99.90;;;;;;6723842;88;20181;-75
2023/02/04 23:54:19;;;;;;;1999.90;999.90;;;7.60;99.90;;;;;;6720832;88;20214;-76
